createdAt,value
2019-06-26T00:01:55.599Z,6.45
2019-06-26T00:04:27.443Z,6.83
2019-06-26T00:06:59.381Z,8.03
2019-06-26T00:09:31.216Z,6.05
2019-06-26T00:12:04.624Z,6.95
2019-06-26T00:14:38.721Z,4.65
2019-06-26T00:17:10.026Z,9.40
2019-06-26T00:19:41.846Z,6.65
2019-06-26T00:22:13.691Z,9.53
2019-06-26T00:24:45.622Z,9.98
2019-06-26T00:27:17.560Z,4.08
2019-06-26T00:29:49.466Z,6.22
2019-06-26T00:32:21.279Z,7.00
2019-06-26T00:34:54.124Z,6.08
2019-06-26T00:37:26.053Z,7.80
2019-06-26T00:39:57.897Z,8.08
2019-06-26T00:42:30.213Z,8.48
2019-06-26T00:45:02.131Z,6.50
2019-06-26T00:47:34.111Z,6.80
2019-06-26T00:50:09.134Z,7.37
2019-06-26T00:52:41.096Z,9.88
2019-06-26T00:55:12.926Z,6.10
2019-06-26T00:57:44.880Z,5.62
2019-06-26T01:00:16.793Z,7.70
2019-06-26T01:02:48.779Z,8.63
2019-06-26T01:05:20.596Z,5.97
2019-06-26T01:07:52.560Z,7.72
2019-06-26T01:10:24.456Z,6.75
2019-06-26T01:12:56.403Z,6.15
2019-06-26T01:15:28.220Z,6.33
2019-06-26T01:18:00.160Z,9.73
2019-06-26T01:20:31.987Z,7.33
2019-06-26T01:23:03.868Z,10.65
2019-06-26T01:25:35.861Z,6.92
2019-06-26T01:28:07.719Z,7.65
2019-06-26T01:30:39.758Z,6.72
2019-06-26T01:33:11.717Z,11.38
2019-06-26T01:35:45.623Z,10.98
2019-06-26T01:38:17.569Z,9.55
2019-06-26T01:40:49.477Z,9.83
2019-06-26T01:43:21.348Z,11.80
2019-06-26T01:45:53.290Z,8.23
2019-06-26T01:48:25.206Z,9.85
2019-06-26T01:50:57.037Z,12.43
2019-06-26T01:53:29.168Z,12.33
2019-06-26T01:56:01.302Z,15.23
2019-06-26T01:58:33.373Z,15.15
2019-06-26T02:01:05.410Z,14.65
2019-06-26T02:03:37.483Z,13.40
2019-06-26T02:06:09.492Z,16.45
2019-06-26T02:08:41.471Z,14.53
2019-06-26T02:11:13.508Z,13.98
2019-06-26T02:13:45.485Z,13.08
2019-06-26T02:16:17.460Z,12.85
2019-06-26T02:18:51.186Z,14.47
2019-06-26T02:21:23.209Z,13.03
2019-06-26T02:23:55.278Z,10.80
2019-06-26T02:26:27.339Z,13.00
2019-06-26T02:28:59.488Z,13.93
2019-06-26T02:31:31.424Z,12.53
2019-06-26T02:34:03.573Z,12.37
2019-06-26T02:36:35.680Z,10.40
2019-06-26T02:39:07.833Z,11.00
2019-06-26T02:41:39.938Z,14.25
2019-06-26T02:44:12.106Z,11.03
2019-06-26T02:46:44.217Z,11.57
2019-06-26T02:49:16.352Z,6.87
2019-06-26T02:51:48.273Z,6.53
2019-06-26T02:54:20.196Z,7.28
2019-06-26T02:56:52.016Z,4.90
2019-06-26T02:59:23.827Z,6.87
2019-06-26T03:01:55.710Z,8.10
2019-06-26T03:04:27.698Z,4.90
2019-06-26T03:06:59.615Z,4.00
2019-06-26T03:09:31.557Z,7.08
2019-06-26T03:12:03.457Z,5.78
2019-06-26T03:14:35.317Z,7.42
2019-06-26T03:17:07.248Z,4.47
2019-06-26T03:19:39.097Z,5.60
2019-06-26T03:22:10.935Z,3.75
2019-06-26T03:24:42.887Z,5.28
2019-06-26T03:27:14.705Z,5.05
2019-06-26T03:29:46.869Z,8.45
2019-06-26T03:32:18.653Z,9.93
2019-06-26T03:34:50.524Z,7.10
2019-06-26T03:37:23.395Z,8.98
2019-06-26T03:39:55.363Z,8.10
2019-06-26T03:42:27.287Z,7.00
2019-06-26T03:44:59.244Z,7.60
2019-06-26T03:47:31.146Z,6.45
2019-06-26T03:50:03.697Z,9.45
2019-06-26T03:52:35.593Z,9.45
2019-06-26T03:55:07.540Z,13.83
2019-06-26T03:57:39.552Z,17.70
2019-06-26T04:00:12.545Z,10.05
2019-06-26T04:02:44.489Z,12.50
2019-06-26T04:05:16.581Z,8.75
2019-06-26T04:07:48.471Z,7.67
2019-06-26T04:10:20.343Z,6.28
2019-06-26T04:12:52.320Z,7.53
2019-06-26T04:15:37.583Z,9.58
2019-06-26T04:17:57.956Z,10.30
2019-06-26T04:20:30.001Z,6.50
2019-06-26T04:23:01.832Z,7.80
2019-06-26T04:25:33.779Z,6.85
2019-06-26T04:28:06.526Z,10.40
2019-06-26T04:30:39.711Z,9.00
2019-06-26T04:33:11.605Z,5.50
2019-06-26T04:35:43.454Z,10.70
2019-06-26T04:38:16.469Z,4.45
2019-06-26T04:40:48.412Z,6.25
2019-06-26T04:43:20.328Z,5.53
2019-06-26T04:45:57.989Z,6.03
2019-06-26T04:48:25.962Z,6.50
2019-06-26T04:50:57.853Z,4.90
2019-06-26T04:53:29.774Z,5.00
2019-06-26T04:56:01.714Z,6.15
2019-06-26T04:58:33.617Z,5.67
2019-06-26T05:01:05.553Z,4.25
2019-06-26T05:03:37.436Z,7.65
2019-06-26T05:06:09.383Z,5.12
2019-06-26T05:08:41.342Z,4.45
2019-06-26T05:11:13.302Z,3.37
2019-06-26T05:13:45.229Z,8.33
2019-06-26T05:16:20.296Z,7.03
2019-06-26T05:18:50.787Z,2.42
2019-06-26T05:21:22.750Z,3.58
2019-06-26T05:23:54.744Z,10.30
2019-06-26T05:26:26.753Z,4.62
2019-06-26T05:28:58.638Z,5.72
2019-06-26T05:31:30.674Z,3.77
2019-06-26T05:34:02.754Z,2.98
2019-06-26T05:36:34.708Z,6.30
2019-06-26T05:39:07.701Z,3.22
2019-06-26T05:41:39.636Z,4.53
2019-06-26T05:44:11.551Z,2.65
2019-06-26T05:46:43.667Z,4.17
2019-06-26T05:49:15.561Z,4.97
2019-06-26T05:51:47.558Z,5.47
2019-06-26T05:54:20.480Z,2.85
2019-06-26T05:56:53.449Z,4.95
2019-06-26T05:59:25.463Z,6.97
2019-06-26T06:01:57.491Z,6.75
2019-06-26T06:04:29.427Z,5.97
2019-06-26T06:07:01.372Z,6.65
2019-06-26T06:09:33.319Z,3.33
2019-06-26T06:12:05.285Z,5.33
2019-06-26T06:14:37.254Z,6.58
2019-06-26T06:17:09.191Z,6.10
2019-06-26T06:19:41.111Z,3.62
2019-06-26T06:22:13.068Z,13.55
2019-06-26T06:24:45.106Z,2.87
2019-06-26T06:27:17.106Z,7.15
2019-06-26T06:29:49.023Z,5.53
2019-06-26T06:32:22.157Z,2.20
2019-06-26T06:34:56.124Z,4.45
2019-06-26T06:37:28.103Z,3.45
2019-06-26T06:40:00.974Z,2.70
2019-06-26T06:45:37.053Z,2.12
2019-06-26T06:48:09.182Z,4.83
2019-06-26T06:50:44.165Z,1.90
2019-06-26T06:53:17.392Z,3.98
2019-06-26T06:55:52.072Z,4.65
2019-06-26T06:58:24.189Z,2.87
2019-06-26T07:00:56.266Z,3.80
2019-06-26T07:03:30.808Z,3.58
2019-06-26T07:09:36.980Z,2.72
2019-06-26T07:12:20.995Z,2.75
2019-06-26T07:14:55.913Z,3.90
2019-06-26T07:17:44.594Z,5.15
2019-06-26T07:20:16.538Z,3.92
2019-06-26T07:22:54.937Z,1.62
2019-06-26T07:25:36.229Z,8.68
2019-06-26T07:28:09.294Z,2.17
2019-06-26T07:30:42.439Z,2.80
2019-06-26T07:58:46.727Z,5.92
2019-06-26T08:01:19.694Z,7.15
2019-06-26T08:03:53.329Z,3.50
2019-06-26T08:06:50.581Z,5.15
2019-06-26T08:09:22.549Z,7.17
2019-06-26T08:11:57.762Z,5.70
2019-06-26T08:14:33.261Z,6.65
2019-06-26T08:17:05.357Z,2.98
2019-06-26T08:19:40.349Z,3.40
2019-06-26T08:22:26.136Z,5.22
2019-06-26T08:28:19.387Z,5.60
2019-06-26T08:31:09.115Z,3.05
2019-06-26T08:33:41.054Z,3.72
2019-06-26T08:36:13.009Z,2.65
2019-06-26T08:38:44.921Z,5.22
2019-06-26T08:41:16.819Z,6.83
2019-06-26T08:43:48.726Z,4.40
2019-06-26T08:46:20.620Z,2.72
2019-06-26T08:48:52.454Z,6.55
2019-06-26T08:51:24.393Z,6.10
2019-06-26T08:53:56.316Z,4.75
2019-06-26T08:56:28.340Z,3.52
2019-06-26T08:59:00.354Z,2.45
2019-06-26T09:01:32.288Z,4.20
2019-06-26T09:04:04.281Z,3.85
2019-06-26T09:06:36.102Z,3.77
2019-06-26T09:09:08.064Z,4.85
2019-06-26T09:11:39.992Z,3.47
2019-06-26T09:14:11.887Z,3.47
2019-06-26T09:16:43.802Z,4.65
2019-06-26T09:19:15.702Z,5.37
2019-06-26T09:21:47.569Z,5.37
2019-06-26T09:24:19.539Z,3.40
2019-06-26T09:26:51.407Z,2.27
2019-06-26T09:29:24.111Z,3.72
2019-06-26T09:31:56.205Z,2.50
2019-06-26T09:34:28.131Z,6.80
2019-06-26T09:37:00.040Z,6.00
2019-06-26T09:39:31.931Z,3.45
2019-06-26T09:42:03.835Z,2.80
2019-06-26T09:44:35.769Z,25.23
2019-06-26T09:47:07.765Z,3.87
2019-06-26T09:49:39.668Z,3.72
2019-06-26T09:52:11.561Z,3.00
2019-06-26T09:54:43.413Z,8.60
2019-06-26T09:57:15.317Z,3.08
2019-06-26T09:59:47.261Z,6.33
2019-06-26T10:02:19.179Z,5.25
2019-06-26T10:04:50.977Z,6.08
2019-06-26T10:07:22.839Z,4.42
2019-06-26T10:09:54.751Z,8.98
2019-06-26T10:12:26.634Z,4.90
2019-06-26T10:14:58.551Z,3.87
2019-06-26T10:17:30.452Z,3.50
2019-06-26T10:20:02.414Z,5.15
2019-06-26T10:22:34.251Z,4.20
2019-06-26T10:25:10.923Z,2.42
2019-06-26T10:27:40.587Z,4.20
2019-06-26T10:30:12.507Z,3.50
2019-06-26T10:32:44.417Z,2.55
2019-06-26T10:35:16.317Z,3.72
2019-06-26T10:37:48.214Z,4.30
2019-06-26T10:40:20.138Z,3.05
2019-06-26T10:42:52.077Z,2.90
2019-06-26T10:45:23.926Z,4.97
2019-06-26T10:47:55.750Z,5.97
2019-06-26T10:50:27.591Z,7.40
2019-06-26T10:52:59.520Z,3.92
2019-06-26T10:55:31.439Z,2.12
2019-06-26T10:58:03.425Z,4.20
2019-06-26T11:00:35.357Z,3.27
2019-06-26T11:03:07.233Z,2.80
2019-06-26T11:05:39.137Z,4.05
2019-06-26T11:08:11.045Z,2.98
2019-06-26T11:10:42.955Z,1.95
2019-06-26T11:13:14.861Z,5.12
2019-06-26T11:15:46.764Z,6.17
2019-06-26T11:18:19.659Z,2.87
2019-06-26T11:20:51.580Z,2.55
2019-06-26T11:23:23.500Z,2.35
2019-06-26T11:25:55.526Z,2.15
2019-06-26T11:28:27.403Z,2.50
2019-06-26T11:30:59.396Z,5.78
2019-06-26T11:33:31.402Z,6.35
2019-06-26T11:36:03.253Z,3.52
2019-06-26T11:38:35.303Z,5.28
2019-06-26T11:41:07.226Z,3.00
2019-06-26T11:43:39.165Z,8.10
2019-06-26T11:46:11.057Z,3.22
2019-06-26T11:48:43.046Z,4.47
2019-06-26T11:51:14.952Z,3.20
2019-06-26T11:53:46.858Z,3.75
2019-06-26T11:56:18.777Z,3.27
2019-06-26T11:58:50.678Z,5.00
2019-06-26T12:01:22.793Z,2.62
2019-06-26T12:03:54.737Z,4.58
2019-06-26T12:06:26.641Z,4.00
2019-06-26T12:08:58.573Z,5.60
2019-06-26T12:11:30.422Z,4.28
2019-06-26T12:14:03.453Z,3.75
2019-06-26T12:16:35.358Z,2.08
2019-06-26T12:19:23.802Z,2.42
2019-06-26T12:21:55.741Z,3.65
2019-06-26T12:24:27.603Z,3.67
2019-06-26T12:26:59.527Z,3.70
2019-06-26T12:29:48.037Z,1.87
2019-06-26T12:32:42.119Z,3.02
2019-06-26T12:35:10.175Z,3.83
2019-06-26T12:37:42.097Z,9.05
2019-06-26T12:40:31.493Z,4.75
2019-06-26T12:43:19.950Z,3.85
2019-06-26T12:45:51.847Z,3.33
2019-06-26T12:48:40.264Z,3.08
2019-06-26T12:51:28.494Z,2.45
2019-06-26T12:54:16.819Z,5.17
2019-06-26T12:56:48.765Z,5.45
2019-06-26T12:59:37.314Z,8.10
2019-06-26T13:02:25.464Z,4.75
2019-06-26T13:05:00.443Z,3.35
2019-06-26T13:07:32.311Z,5.20
2019-06-26T13:10:07.468Z,3.08
2019-06-26T13:12:40.552Z,4.08
2019-06-26T13:15:12.390Z,4.95
2019-06-26T13:17:44.372Z,3.75
2019-06-26T13:20:17.295Z,10.28
2019-06-26T13:22:49.273Z,1.95
2019-06-26T13:25:21.119Z,5.90
2019-06-26T13:27:53.012Z,3.33
2019-06-26T13:30:36.845Z,5.35
2019-06-26T13:33:09.774Z,5.25
2019-06-26T13:35:41.611Z,3.77
2019-06-26T13:38:13.419Z,5.12
2019-06-26T13:40:45.269Z,4.33
2019-06-26T13:43:18.167Z,3.05
2019-06-26T13:45:50.054Z,3.80
2019-06-26T13:48:21.924Z,9.50
2019-06-26T13:51:08.073Z,4.25
2019-06-26T13:53:27.506Z,5.10
2019-06-26T13:55:59.432Z,4.67
2019-06-26T13:58:31.338Z,5.45
2019-06-26T14:01:03.265Z,3.87
2019-06-26T14:03:35.196Z,4.60
2019-06-26T14:06:07.102Z,5.28
2019-06-26T14:08:38.927Z,5.03
2019-06-26T14:11:10.774Z,3.02
2019-06-26T14:13:42.654Z,3.95
2019-06-26T14:16:14.479Z,2.22
2019-06-26T14:18:46.382Z,5.70
2019-06-26T14:21:25.672Z,4.42
2019-06-26T14:23:51.907Z,4.40
2019-06-26T14:26:23.752Z,6.25
2019-06-26T14:28:55.675Z,3.98
2019-06-26T14:31:27.505Z,7.08
2019-06-26T14:33:59.412Z,2.37
2019-06-26T14:36:31.270Z,3.70
2019-06-26T14:39:04.659Z,4.15
2019-06-26T14:41:39.215Z,3.37
2019-06-26T14:44:11.276Z,3.47
2019-06-26T14:46:43.197Z,2.70
2019-06-26T14:49:15.018Z,4.58
2019-06-26T14:51:47.891Z,3.83
2019-06-26T14:54:19.997Z,6.37
2019-06-26T14:56:51.837Z,2.17
2019-06-26T14:59:23.709Z,4.22
2019-06-26T15:01:55.556Z,3.30
2019-06-26T15:04:27.399Z,4.05
2019-06-26T15:06:59.328Z,2.15
2019-06-26T15:09:31.229Z,3.75
2019-06-26T15:12:03.149Z,2.65
2019-06-26T15:14:35.146Z,3.37
2019-06-26T15:17:07.061Z,3.15
2019-06-26T15:19:38.929Z,7.90
2019-06-26T15:22:10.807Z,1.70
2019-06-26T15:24:42.752Z,1.82
2019-06-26T15:27:14.697Z,4.17
2019-06-26T15:29:46.656Z,5.35
2019-06-26T15:32:18.546Z,6.03
2019-06-26T15:34:50.544Z,5.08
2019-06-26T15:37:22.466Z,5.12
2019-06-26T15:39:54.308Z,2.90
2019-06-26T15:42:26.240Z,2.98
2019-06-26T15:44:58.136Z,7.12
2019-06-26T15:47:29.928Z,8.88
2019-06-26T15:50:01.918Z,4.03
2019-06-26T15:52:33.839Z,7.15
2019-06-26T15:55:07.267Z,3.37
2019-06-26T15:57:39.121Z,4.42
2019-06-26T16:00:11.010Z,6.08
2019-06-26T16:02:42.828Z,7.05
2019-06-26T16:05:16.586Z,6.55
2019-06-26T16:07:48.491Z,5.05
2019-06-26T16:10:20.416Z,4.42
2019-06-26T16:12:52.336Z,6.75
2019-06-26T16:15:24.327Z,5.87
2019-06-26T16:18:06.885Z,7.55
2019-06-26T16:20:38.808Z,7.42
2019-06-26T16:23:10.730Z,16.00
2019-06-26T16:25:42.721Z,8.25
2019-06-26T16:28:14.643Z,20.35
2019-06-26T16:30:46.645Z,8.38
2019-06-26T16:33:18.396Z,9.60
2019-06-26T16:35:50.326Z,9.28
2019-06-26T16:38:22.170Z,10.58
2019-06-26T16:40:54.155Z,8.03
2019-06-26T16:43:26.069Z,9.93
2019-06-26T16:45:57.958Z,5.75
2019-06-26T16:48:29.918Z,5.83
2019-06-26T16:51:01.833Z,8.20
2019-06-26T16:53:35.551Z,6.65
2019-06-26T16:56:07.391Z,9.00
2019-06-26T16:58:39.296Z,9.33
2019-06-26T17:01:11.234Z,6.90
2019-06-26T17:03:43.148Z,11.68
2019-06-26T17:06:16.155Z,8.65
2019-06-26T17:08:48.036Z,8.15
2019-06-26T17:11:19.969Z,9.13
2019-06-26T17:13:51.799Z,6.83
2019-06-26T17:16:25.252Z,10.90
2019-06-26T17:18:57.199Z,6.85
2019-06-26T17:21:29.028Z,8.73
2019-06-26T17:24:00.907Z,11.45
2019-06-26T17:26:34.540Z,9.90
2019-06-26T17:29:07.461Z,8.33
2019-06-26T17:31:39.346Z,11.93
2019-06-26T17:34:11.361Z,6.53
2019-06-26T17:36:43.302Z,17.50
2019-06-26T17:39:15.250Z,9.23
2019-06-26T17:41:47.166Z,8.23
2019-06-26T17:44:19.114Z,8.78
2019-06-26T17:46:51.007Z,26.30
2019-06-26T17:49:22.962Z,24.72
2019-06-26T17:51:54.968Z,41.35
2019-06-26T17:54:26.917Z,47.73
2019-06-26T17:56:58.927Z,23.60
2019-06-26T17:59:30.959Z,20.20
2019-06-26T18:02:02.985Z,15.90
2019-06-26T18:04:34.995Z,15.10
2019-06-26T18:07:07.020Z,13.28
2019-06-26T18:09:39.034Z,13.95
2019-06-26T18:12:11.049Z,11.03
2019-06-26T18:14:43.477Z,15.38
2019-06-26T18:17:22.148Z,16.65
2019-06-26T18:19:49.108Z,9.88
2019-06-26T18:22:21.003Z,11.40
2019-06-26T18:24:53.005Z,11.75
2019-06-26T18:27:25.063Z,12.45
2019-06-26T18:29:56.994Z,17.57
2019-06-26T18:32:28.987Z,26.48
2019-06-26T18:35:01.118Z,17.45
2019-06-26T18:37:33.057Z,21.50
2019-06-26T18:40:06.347Z,14.23
2019-06-26T18:42:38.709Z,9.40
2019-06-26T18:45:10.594Z,13.38
2019-06-26T18:47:42.625Z,14.75
2019-06-26T18:50:14.487Z,11.00
2019-06-26T18:52:46.515Z,11.20
2019-06-26T18:55:18.511Z,8.90
2019-06-26T18:57:50.421Z,11.83
2019-06-26T19:00:22.443Z,12.85
2019-06-26T19:02:54.478Z,9.58
2019-06-26T19:05:27.329Z,10.85
2019-06-26T19:07:59.457Z,7.85
2019-06-26T19:10:31.344Z,8.38
2019-06-26T19:13:03.195Z,10.95
2019-06-26T19:15:35.218Z,9.08
2019-06-26T19:18:07.139Z,7.15
2019-06-26T19:20:38.986Z,14.35
2019-06-26T19:23:11.013Z,12.20
2019-06-26T19:25:43.141Z,9.55
2019-06-26T19:28:14.974Z,6.22
2019-06-26T19:30:46.871Z,11.63
2019-06-26T19:33:18.810Z,7.15
2019-06-26T19:35:50.737Z,24.47
2019-06-26T19:38:22.858Z,9.08
2019-06-26T19:40:54.724Z,9.38
2019-06-26T19:43:26.643Z,7.80
2019-06-26T19:45:58.543Z,7.92
2019-06-26T19:48:30.381Z,10.93
2019-06-26T19:51:02.370Z,9.93
2019-06-26T19:53:34.275Z,10.60
2019-06-26T19:56:06.205Z,8.25
2019-06-26T19:58:38.075Z,9.10
2019-06-26T20:01:09.990Z,13.15
2019-06-26T20:03:41.999Z,9.68
2019-06-26T20:06:13.902Z,7.78
2019-06-26T20:08:54.454Z,8.93
2019-06-26T20:11:19.488Z,13.30
2019-06-26T20:13:51.417Z,8.08
2019-06-26T20:16:23.280Z,9.55
2019-06-26T20:18:55.092Z,14.25
2019-06-26T20:21:27.091Z,11.03
2019-06-26T20:24:00.035Z,11.33
2019-06-26T20:26:32.038Z,13.00
2019-06-26T20:29:03.964Z,10.15
2019-06-26T20:31:37.085Z,14.35
2019-06-26T20:34:09.085Z,12.70
2019-06-26T20:36:41.112Z,10.60
2019-06-26T20:39:13.126Z,7.42
2019-06-26T20:41:45.025Z,11.25
2019-06-26T20:44:17.045Z,12.28
2019-06-26T20:46:48.973Z,15.05
2019-06-26T20:49:20.892Z,13.65
2019-06-26T20:51:52.802Z,10.65
2019-06-26T20:54:26.146Z,8.55
2019-06-26T20:56:57.970Z,10.80
2019-06-26T20:59:29.912Z,12.88
2019-06-26T21:02:01.936Z,11.00
2019-06-26T21:04:33.877Z,10.85
2019-06-26T21:07:05.873Z,11.40
2019-06-26T21:09:37.797Z,7.47
2019-06-26T21:12:09.765Z,11.30
2019-06-26T21:14:41.783Z,9.73
2019-06-26T21:17:13.684Z,8.55
2019-06-26T21:19:45.607Z,9.38
2019-06-26T21:22:17.443Z,10.90
2019-06-26T21:24:49.465Z,8.23
2019-06-26T21:27:21.365Z,11.57
2019-06-26T21:29:53.320Z,9.95
2019-06-26T21:32:25.244Z,12.93
2019-06-26T21:34:57.215Z,11.00
2019-06-26T21:37:29.225Z,14.18
2019-06-26T21:40:01.167Z,11.15
2019-06-26T21:42:33.175Z,12.20
2019-06-26T21:45:05.976Z,8.85
2019-06-26T21:47:37.796Z,7.90
2019-06-26T21:50:09.704Z,8.65
2019-06-26T21:52:41.619Z,12.05
2019-06-26T21:55:13.639Z,8.30
2019-06-26T21:58:03.419Z,12.85
2019-06-26T22:00:53.118Z,12.60
2019-06-26T22:03:42.686Z,16.40
2019-06-26T22:06:22.076Z,9.80
2019-06-26T22:09:07.294Z,8.80
2019-06-26T22:11:40.721Z,11.10
2019-06-26T22:14:12.778Z,13.72
